Aviation Digital Data Service (ADDS)

Output produced by METARs form (0751 UTC 20 February 2018)
found at http://www.aviationweather.gov/adds/metars/
 
TAF LOWW 200515Z 2006/2112 04006KT 2000 -SN BKN004 BKN012 TX00/2112Z TNM02/2006Z 
     TEMPO 2006/2106 6000 -SN BKN020 
     PROB30 
     TEMPO 2006/2022 0900 SN VV002 
     BECMG 2022/2024 34008KT BKN030